sensor_id;sensor_type;location;lat;lon;timestamp;temperature;humidity
36790;DHT22;22740;52.182;8.780;2022-11-20T00:06:00;-2.60;99.90
36790;DHT22;22740;52.182;8.780;2022-11-20T00:12:02;-2.60;99.90
36790;DHT22;22740;52.182;8.780;2022-11-20T00:18:04;-2.70;99.90
36790;DHT22;22740;52.182;8.780;2022-11-20T00:24:08;-2.80;99.90
36790;DHT22;22740;52.182;8.780;2022-11-20T00:30:10;-2.70;99.90
36790;DHT22;22740;52.182;8.780;2022-11-20T00:36:20;-2.80;99.90
36790;DHT22;22740;52.182;8.780;2022-11-20T00:42:21;-2.90;99.90
36790;DHT22;22740;52.182;8.780;2022-11-20T00:48:23;-2.80;99.90
36790;DHT22;22740;52.182;8.780;2022-11-20T00:54:25;-3.20;99.90
36790;DHT22;22740;52.182;8.780;2022-11-20T01:00:27;-3.20;99.90
36790;DHT22;22740;52.182;8.780;2022-11-20T01:06:29;-3.10;99.90
36790;DHT22;22740;52.182;8.780;2022-11-20T01:12:32;-3.10;99.90
36790;DHT22;22740;52.182;8.780;2022-11-20T01:18:34;-3.10;99.90
36790;DHT22;22740;52.182;8.780;2022-11-20T01:24:36;-3.10;99.90
36790;DHT22;22740;52.182;8.780;2022-11-20T01:30:37;-3.00;99.90
36790;DHT22;22740;52.182;8.780;2022-11-20T01:36:39;-3.00;99.90
36790;DHT22;22740;52.182;8.780;2022-11-20T01:42:45;-3.10;99.90
36790;DHT22;22740;52.182;8.780;2022-11-20T01:49:15;-3.10;99.90
36790;DHT22;22740;52.182;8.780;2022-11-20T01:55:30;-3.40;99.90
36790;DHT22;22740;52.182;8.780;2022-11-20T02:01:32;-3.30;99.90
36790;DHT22;22740;52.182;8.780;2022-11-20T02:07:34;-3.30;99.90
36790;DHT22;22740;52.182;8.780;2022-11-20T02:13:36;-3.00;99.90
36790;DHT22;22740;52.182;8.780;2022-11-20T02:19:44;-3.30;99.90
36790;DHT22;22740;52.182;8.780;2022-11-20T02:25:46;-3.20;99.90
36790;DHT22;22740;52.182;8.780;2022-11-20T02:31:48;-3.10;99.90
36790;DHT22;22740;52.182;8.780;2022-11-20T02:37:51;-3.30;99.90
36790;DHT22;22740;52.182;8.780;2022-11-20T02:43:53;-3.00;99.90
36790;DHT22;22740;52.182;8.780;2022-11-20T02:49:55;-3.10;99.90
36790;DHT22;22740;52.182;8.780;2022-11-20T02:55:57;-3.40;99.90
36790;DHT22;22740;52.182;8.780;2022-11-20T03:01:58;-3.50;99.90
36790;DHT22;22740;52.182;8.780;2022-11-20T03:08:00;-3.60;99.90
36790;DHT22;22740;52.182;8.780;2022-11-20T03:14:03;-3.60;99.90
36790;DHT22;22740;52.182;8.780;2022-11-20T03:20:05;-3.50;99.90
36790;DHT22;22740;52.182;8.780;2022-11-20T03:26:20;-3.70;99.90
36790;DHT22;22740;52.182;8.780;2022-11-20T03:32:22;-3.70;99.90
36790;DHT22;22740;52.182;8.780;2022-11-20T03:38:24;-3.60;99.90
36790;DHT22;22740;52.182;8.780;2022-11-20T03:44:25;-3.50;99.90
36790;DHT22;22740;52.182;8.780;2022-11-20T03:50:27;-3.50;99.90
36790;DHT22;22740;52.182;8.780;2022-11-20T03:56:30;-3.40;99.90
36790;DHT22;22740;52.182;8.780;2022-11-20T04:02:31;-3.30;99.90
36790;DHT22;22740;52.182;8.780;2022-11-20T04:08:33;-3.40;99.90
36790;DHT22;22740;52.182;8.780;2022-11-20T04:14:35;-3.60;99.90
36790;DHT22;22740;52.182;8.780;2022-11-20T04:20:37;-3.60;99.90
36790;DHT22;22740;52.182;8.780;2022-11-20T04:26:39;-3.80;99.90
36790;DHT22;22740;52.182;8.780;2022-11-20T04:32:40;-3.70;99.90
36790;DHT22;22740;52.182;8.780;2022-11-20T04:38:42;-3.70;99.90
36790;DHT22;22740;52.182;8.780;2022-11-20T04:44:44;-3.80;99.90
36790;DHT22;22740;52.182;8.780;2022-11-20T04:50:46;-4.10;99.90
36790;DHT22;22740;52.182;8.780;2022-11-20T04:56:48;-4.20;99.90
36790;DHT22;22740;52.182;8.780;2022-11-20T05:02:51;-4.10;99.90
36790;DHT22;22740;52.182;8.780;2022-11-20T05:08:52;-4.00;99.90
36790;DHT22;22740;52.182;8.780;2022-11-20T05:14:54;-3.90;99.90
36790;DHT22;22740;52.182;8.780;2022-11-20T05:20:56;-3.90;99.90
36790;DHT22;22740;52.182;8.780;2022-11-20T05:26:58;-3.90;99.90
36790;DHT22;22740;52.182;8.780;2022-11-20T05:33:00;-3.80;99.90
36790;DHT22;22740;52.182;8.780;2022-11-20T05:39:02;-3.50;99.90
36790;DHT22;22740;52.182;8.780;2022-11-20T05:45:04;-3.10;99.90
36790;DHT22;22740;52.182;8.780;2022-11-20T05:51:06;-3.20;99.90
36790;DHT22;22740;52.182;8.780;2022-11-20T05:57:08;-3.30;99.90
36790;DHT22;22740;52.182;8.780;2022-11-20T06:03:10;-3.20;99.90
36790;DHT22;22740;52.182;8.780;2022-11-20T06:09:12;-3.20;99.90
36790;DHT22;22740;52.182;8.780;2022-11-20T06:15:13;-3.30;99.90
36790;DHT22;22740;52.182;8.780;2022-11-20T06:21:16;-3.30;99.90
36790;DHT22;22740;52.182;8.780;2022-11-20T06:27:18;-3.30;99.90
36790;DHT22;22740;52.182;8.780;2022-11-20T06:33:19;-3.10;99.90
36790;DHT22;22740;52.182;8.780;2022-11-20T06:39:21;-3.20;99.90
36790;DHT22;22740;52.182;8.780;2022-11-20T06:45:23;-3.20;99.90
36790;DHT22;22740;52.182;8.780;2022-11-20T06:51:25;-3.30;99.90
36790;DHT22;22740;52.182;8.780;2022-11-20T06:57:27;-3.30;99.90
36790;DHT22;22740;52.182;8.780;2022-11-20T07:03:28;-3.30;99.90
36790;DHT22;22740;52.182;8.780;2022-11-20T07:09:30;-3.30;99.90
36790;DHT22;22740;52.182;8.780;2022-11-20T07:15:32;-3.20;99.90
36790;DHT22;22740;52.182;8.780;2022-11-20T07:21:33;-3.50;99.90
36790;DHT22;22740;52.182;8.780;2022-11-20T07:27:35;-3.30;99.90
36790;DHT22;22740;52.182;8.780;2022-11-20T07:33:37;-3.20;99.90
36790;DHT22;22740;52.182;8.780;2022-11-20T07:39:39;-3.10;99.90
36790;DHT22;22740;52.182;8.780;2022-11-20T07:45:40;-3.20;99.90
36790;DHT22;22740;52.182;8.780;2022-11-20T07:51:42;-2.90;99.90
36790;DHT22;22740;52.182;8.780;2022-11-20T07:57:44;-2.80;99.90
36790;DHT22;22740;52.182;8.780;2022-11-20T08:03:46;-2.40;99.90
36790;DHT22;22740;52.182;8.780;2022-11-20T08:09:47;-2.00;99.90
36790;DHT22;22740;52.182;8.780;2022-11-20T08:15:49;-2.00;99.90
36790;DHT22;22740;52.182;8.780;2022-11-20T08:21:54;-2.00;99.90
36790;DHT22;22740;52.182;8.780;2022-11-20T08:27:57;-1.90;99.90
36790;DHT22;22740;52.182;8.780;2022-11-20T08:34:01;-1.90;99.90
36790;DHT22;22740;52.182;8.780;2022-11-20T08:40:11;-1.70;99.90
36790;DHT22;22740;52.182;8.780;2022-11-20T08:46:19;-2.00;99.90
36790;DHT22;22740;52.182;8.780;2022-11-20T08:52:21;-2.00;99.90
36790;DHT22;22740;52.182;8.780;2022-11-20T08:58:23;-2.00;99.90
36790;DHT22;22740;52.182;8.780;2022-11-20T09:04:25;-2.00;99.90
36790;DHT22;22740;52.182;8.780;2022-11-20T09:10:27;-1.70;99.90
36790;DHT22;22740;52.182;8.780;2022-11-20T09:16:29;-1.60;99.90
36790;DHT22;22740;52.182;8.780;2022-11-20T09:22:30;-1.80;99.90
36790;DHT22;22740;52.182;8.780;2022-11-20T09:28:32;-1.80;99.90
36790;DHT22;22740;52.182;8.780;2022-11-20T09:34:34;-1.60;99.90
36790;DHT22;22740;52.182;8.780;2022-11-20T09:40:37;-1.30;99.90
36790;DHT22;22740;52.182;8.780;2022-11-20T09:46:41;-0.80;99.90
36790;DHT22;22740;52.182;8.780;2022-11-20T09:58:52;-0.50;99.90
36790;DHT22;22740;52.182;8.780;2022-11-20T10:04:58;-0.20;99.90
36790;DHT22;22740;52.182;8.780;2022-11-20T10:11:11;-0.30;99.90
36790;DHT22;22740;52.182;8.780;2022-11-20T10:17:33;0.20;99.90
36790;DHT22;22740;52.182;8.780;2022-11-20T10:23:51;0.10;99.90
36790;DHT22;22740;52.182;8.780;2022-11-20T10:30:07;0.10;99.90
36790;DHT22;22740;52.182;8.780;2022-11-20T10:36:23;0.60;99.90
36790;DHT22;22740;52.182;8.780;2022-11-20T10:42:29;0.60;99.90
36790;DHT22;22740;52.182;8.780;2022-11-20T10:48:31;0.60;99.90
36790;DHT22;22740;52.182;8.780;2022-11-20T10:54:36;0.60;99.90
36790;DHT22;22740;52.182;8.780;2022-11-20T11:00:40;0.60;99.90
36790;DHT22;22740;52.182;8.780;2022-11-20T11:06:43;0.40;99.90
36790;DHT22;22740;52.182;8.780;2022-11-20T11:12:47;0.20;99.90
36790;DHT22;22740;52.182;8.780;2022-11-20T11:19:03;0.40;99.90
36790;DHT22;22740;52.182;8.780;2022-11-20T11:25:04;1.00;99.90
36790;DHT22;22740;52.182;8.780;2022-11-20T11:31:06;1.10;99.90
36790;DHT22;22740;52.182;8.780;2022-11-20T11:37:18;1.10;99.90
36790;DHT22;22740;52.182;8.780;2022-11-20T11:43:28;1.10;99.90
36790;DHT22;22740;52.182;8.780;2022-11-20T11:50:00;1.10;99.90
36790;DHT22;22740;52.182;8.780;2022-11-20T11:56:08;1.40;99.90
36790;DHT22;22740;52.182;8.780;2022-11-20T12:02:56;1.60;99.90
36790;DHT22;22740;52.182;8.780;2022-11-20T12:08:40;2.00;99.90
36790;DHT22;22740;52.182;8.780;2022-11-20T12:14:45;2.50;99.90
36790;DHT22;22740;52.182;8.780;2022-11-20T12:20:53;2.80;99.90
36790;DHT22;22740;52.182;8.780;2022-11-20T12:51:57;3.10;99.90
36790;DHT22;22740;52.182;8.780;2022-11-20T12:58:05;3.00;99.90
36790;DHT22;22740;52.182;8.780;2022-11-20T13:10:23;3.00;99.90
36790;DHT22;22740;52.182;8.780;2022-11-20T13:28:45;2.70;99.90
36790;DHT22;22740;52.182;8.780;2022-11-20T13:34:55;2.60;99.90
36790;DHT22;22740;52.182;8.780;2022-11-20T13:40:58;2.50;99.90
36790;DHT22;22740;52.182;8.780;2022-11-20T13:47:00;2.20;99.90
36790;DHT22;22740;52.182;8.780;2022-11-20T14:05:31;1.70;99.90
36790;DHT22;22740;52.182;8.780;2022-11-20T14:11:34;1.50;99.90
36790;DHT22;22740;52.182;8.780;2022-11-20T14:17:35;1.40;99.90
36790;DHT22;22740;52.182;8.780;2022-11-20T14:23:38;1.30;99.90
36790;DHT22;22740;52.182;8.780;2022-11-20T14:29:40;1.20;99.90
36790;DHT22;22740;52.182;8.780;2022-11-20T14:35:47;1.00;99.90
36790;DHT22;22740;52.182;8.780;2022-11-20T14:41:52;0.70;99.90
36790;DHT22;22740;52.182;8.780;2022-11-20T14:47:55;0.60;99.90
36790;DHT22;22740;52.182;8.780;2022-11-20T15:12:54;0.50;99.90
36790;DHT22;22740;52.182;8.780;2022-11-20T15:18:57;0.30;99.90
36790;DHT22;22740;52.182;8.780;2022-11-20T15:24:58;0.30;99.90
36790;DHT22;22740;52.182;8.780;2022-11-20T15:31:01;0.30;99.90
36790;DHT22;22740;52.182;8.780;2022-11-20T15:37:03;0.40;99.90
36790;DHT22;22740;52.182;8.780;2022-11-20T15:43:05;0.30;99.90
36790;DHT22;22740;52.182;8.780;2022-11-20T15:49:14;0.20;99.90
36790;DHT22;22740;52.182;8.780;2022-11-20T15:55:16;0.10;99.90
36790;DHT22;22740;52.182;8.780;2022-11-20T16:01:19;0.10;99.90
36790;DHT22;22740;52.182;8.780;2022-11-20T16:07:21;0.20;99.90
36790;DHT22;22740;52.182;8.780;2022-11-20T16:13:23;0.20;99.90
36790;DHT22;22740;52.182;8.780;2022-11-20T16:19:43;0.10;99.90
36790;DHT22;22740;52.182;8.780;2022-11-20T16:25:44;0.00;99.90
36790;DHT22;22740;52.182;8.780;2022-11-20T16:31:46;-0.10;99.90
36790;DHT22;22740;52.182;8.780;2022-11-20T16:37:48;-0.10;99.90
36790;DHT22;22740;52.182;8.780;2022-11-20T16:43:50;-0.20;99.90
36790;DHT22;22740;52.182;8.780;2022-11-20T16:49:52;-0.10;99.90
36790;DHT22;22740;52.182;8.780;2022-11-20T16:55:54;-0.10;99.90
36790;DHT22;22740;52.182;8.780;2022-11-20T17:01:56;0.00;99.90
36790;DHT22;22740;52.182;8.780;2022-11-20T17:07:58;0.00;99.90
36790;DHT22;22740;52.182;8.780;2022-11-20T17:13:59;0.10;99.90
36790;DHT22;22740;52.182;8.780;2022-11-20T17:20:01;0.10;99.90
36790;DHT22;22740;52.182;8.780;2022-11-20T17:26:04;0.20;99.90
36790;DHT22;22740;52.182;8.780;2022-11-20T17:32:06;0.10;99.90
36790;DHT22;22740;52.182;8.780;2022-11-20T17:38:08;0.20;99.90
36790;DHT22;22740;52.182;8.780;2022-11-20T17:44:10;0.20;99.90
36790;DHT22;22740;52.182;8.780;2022-11-20T17:50:12;0.30;99.90
36790;DHT22;22740;52.182;8.780;2022-11-20T17:56:14;0.30;99.90
36790;DHT22;22740;52.182;8.780;2022-11-20T18:02:34;0.40;99.90
36790;DHT22;22740;52.182;8.780;2022-11-20T18:08:36;0.30;99.90
36790;DHT22;22740;52.182;8.780;2022-11-20T18:14:38;0.40;99.90
36790;DHT22;22740;52.182;8.780;2022-11-20T18:20:40;0.40;99.90
36790;DHT22;22740;52.182;8.780;2022-11-20T18:26:42;0.50;99.90
36790;DHT22;22740;52.182;8.780;2022-11-20T18:32:45;0.50;99.90
36790;DHT22;22740;52.182;8.780;2022-11-20T18:38:47;0.50;99.90
36790;DHT22;22740;52.182;8.780;2022-11-20T18:44:49;0.50;99.90
36790;DHT22;22740;52.182;8.780;2022-11-20T18:51:06;0.50;99.90
36790;DHT22;22740;52.182;8.780;2022-11-20T18:57:08;0.50;99.90
36790;DHT22;22740;52.182;8.780;2022-11-20T19:03:14;0.60;99.90
36790;DHT22;22740;52.182;8.780;2022-11-20T19:09:16;0.60;99.90
36790;DHT22;22740;52.182;8.780;2022-11-20T19:15:18;0.50;99.90
36790;DHT22;22740;52.182;8.780;2022-11-20T19:21:21;0.50;99.90
36790;DHT22;22740;52.182;8.780;2022-11-20T19:27:23;0.50;99.90
36790;DHT22;22740;52.182;8.780;2022-11-20T19:33:24;0.50;99.90
36790;DHT22;22740;52.182;8.780;2022-11-20T19:39:26;0.50;99.90
36790;DHT22;22740;52.182;8.780;2022-11-20T19:45:28;0.50;99.90
36790;DHT22;22740;52.182;8.780;2022-11-20T19:51:31;0.50;99.90
36790;DHT22;22740;52.182;8.780;2022-11-20T19:57:33;0.50;99.90
36790;DHT22;22740;52.182;8.780;2022-11-20T20:03:34;0.50;99.90
36790;DHT22;22740;52.182;8.780;2022-11-20T20:09:36;0.50;99.90
36790;DHT22;22740;52.182;8.780;2022-11-20T20:15:38;0.60;99.90
36790;DHT22;22740;52.182;8.780;2022-11-20T20:21:41;0.60;99.90
36790;DHT22;22740;52.182;8.780;2022-11-20T20:27:43;0.60;99.90
36790;DHT22;22740;52.182;8.780;2022-11-20T20:33:44;0.40;99.90
36790;DHT22;22740;52.182;8.780;2022-11-20T20:39:46;0.50;99.90
36790;DHT22;22740;52.182;8.780;2022-11-20T20:45:48;0.50;99.90
36790;DHT22;22740;52.182;8.780;2022-11-20T20:51:50;0.50;99.90
36790;DHT22;22740;52.182;8.780;2022-11-20T20:57:52;0.50;99.90
36790;DHT22;22740;52.182;8.780;2022-11-20T21:03:55;0.50;99.90
36790;DHT22;22740;52.182;8.780;2022-11-20T21:09:57;0.50;99.90
36790;DHT22;22740;52.182;8.780;2022-11-20T21:15:59;0.50;99.90
36790;DHT22;22740;52.182;8.780;2022-11-20T21:22:01;0.40;99.90
36790;DHT22;22740;52.182;8.780;2022-11-20T21:28:05;0.50;99.90
36790;DHT22;22740;52.182;8.780;2022-11-20T21:34:08;0.50;99.90
36790;DHT22;22740;52.182;8.780;2022-11-20T21:40:11;0.50;99.90
36790;DHT22;22740;52.182;8.780;2022-11-20T21:46:13;0.50;99.90
36790;DHT22;22740;52.182;8.780;2022-11-20T21:52:16;0.50;99.90
36790;DHT22;22740;52.182;8.780;2022-11-20T21:58:17;0.50;99.90
36790;DHT22;22740;52.182;8.780;2022-11-20T22:04:19;0.40;99.90
36790;DHT22;22740;52.182;8.780;2022-11-20T22:10:22;0.30;99.90
36790;DHT22;22740;52.182;8.780;2022-11-20T22:16:23;0.30;99.90
36790;DHT22;22740;52.182;8.780;2022-11-20T22:22:25;0.30;99.90
36790;DHT22;22740;52.182;8.780;2022-11-20T22:28:27;0.30;99.90
36790;DHT22;22740;52.182;8.780;2022-11-20T22:34:29;0.20;99.90
36790;DHT22;22740;52.182;8.780;2022-11-20T22:40:30;0.30;99.90
36790;DHT22;22740;52.182;8.780;2022-11-20T22:46:33;0.30;99.90
36790;DHT22;22740;52.182;8.780;2022-11-20T22:52:35;0.30;99.90
36790;DHT22;22740;52.182;8.780;2022-11-20T22:58:37;0.30;99.90
36790;DHT22;22740;52.182;8.780;2022-11-20T23:04:39;0.30;99.90
36790;DHT22;22740;52.182;8.780;2022-11-20T23:10:41;0.30;99.90
36790;DHT22;22740;52.182;8.780;2022-11-20T23:16:42;0.30;99.90
36790;DHT22;22740;52.182;8.780;2022-11-20T23:22:44;0.30;99.90
36790;DHT22;22740;52.182;8.780;2022-11-20T23:28:46;0.30;99.90
36790;DHT22;22740;52.182;8.780;2022-11-20T23:34:47;0.30;99.90
36790;DHT22;22740;52.182;8.780;2022-11-20T23:40:49;0.30;99.90
36790;DHT22;22740;52.182;8.780;2022-11-20T23:46:51;0.30;99.90
36790;DHT22;22740;52.182;8.780;2022-11-20T23:52:53;0.20;99.90
36790;DHT22;22740;52.182;8.780;2022-11-20T23:58:55;0.30;99.90
